createdAt,value
2022-10-12T00:02:27.200Z,6.30
2022-10-12T00:04:54.367Z,6.30
2022-10-12T00:07:21.604Z,6.30
2022-10-12T00:09:48.696Z,6.30
2022-10-12T00:12:15.975Z,6.30
2022-10-12T00:14:43.288Z,6.30
2022-10-12T00:17:10.432Z,6.20
2022-10-12T00:19:37.675Z,6.20
2022-10-12T00:22:04.898Z,6.20
2022-10-12T00:24:32.243Z,6.20
2022-10-12T00:26:59.590Z,6.30
2022-10-12T00:29:26.737Z,6.20
2022-10-12T00:31:54.244Z,6.20
2022-10-12T00:34:21.421Z,6.20
2022-10-12T00:36:48.822Z,6.10
2022-10-12T00:39:15.986Z,6.10
2022-10-12T00:41:44.721Z,6.10
2022-10-12T00:44:46.740Z,6.00
2022-10-12T00:47:43.504Z,6.00
2022-10-12T00:50:25.866Z,6.00
2022-10-12T00:53:06.553Z,6.00
2022-10-12T00:55:38.848Z,5.90
2022-10-12T00:58:08.651Z,5.90
2022-10-12T01:00:38.984Z,5.90
2022-10-12T01:03:09.040Z,5.90
2022-10-12T01:05:39.749Z,5.90
2022-10-12T01:08:07.323Z,5.90
2022-10-12T01:10:34.490Z,5.90
2022-10-12T01:13:02.305Z,5.80
2022-10-12T01:15:36.632Z,5.80
2022-10-12T01:18:10.250Z,5.80
2022-10-12T01:20:49.456Z,5.90
2022-10-12T01:23:18.674Z,5.90
2022-10-12T01:26:00.937Z,5.90
2022-10-12T01:28:33.979Z,5.90
2022-10-12T01:31:28.817Z,5.90
2022-10-12T01:34:09.594Z,6.00
2022-10-12T01:36:41.356Z,6.00
2022-10-12T01:39:28.639Z,6.00
2022-10-12T01:42:03.258Z,6.00
2022-10-12T01:44:32.796Z,6.00
2022-10-12T01:47:01.956Z,5.90
2022-10-12T01:49:33.198Z,5.90
2022-10-12T01:52:35.029Z,5.80
2022-10-12T01:55:17.771Z,5.70
2022-10-12T01:57:51.364Z,5.70
2022-10-12T02:00:18.912Z,5.60
2022-10-12T02:03:04.553Z,5.70
2022-10-12T02:06:03.941Z,5.70
2022-10-12T02:08:41.077Z,5.80
2022-10-12T02:11:17.554Z,5.70
2022-10-12T02:14:16.911Z,5.70
2022-10-12T02:17:09.320Z,5.70
2022-10-12T02:19:58.030Z,5.70
2022-10-12T02:22:37.544Z,5.70
2022-10-12T02:25:09.493Z,5.70
2022-10-12T02:27:39.216Z,5.70
2022-10-12T02:30:08.309Z,5.60
2022-10-12T02:32:51.887Z,5.60
2022-10-12T02:35:23.321Z,5.60
2022-10-12T02:38:11.567Z,5.50
2022-10-12T02:40:47.803Z,5.50
2022-10-12T02:43:40.506Z,5.40
2022-10-12T02:46:10.632Z,5.40
2022-10-12T02:48:40.643Z,5.40
2022-10-12T02:51:09.920Z,5.40
2022-10-12T02:53:37.677Z,5.40
2022-10-12T02:56:08.678Z,5.40
2022-10-12T02:58:37.524Z,5.30
2022-10-12T03:01:05.448Z,5.20
2022-10-12T03:03:32.791Z,5.10
2022-10-12T03:05:59.971Z,5.20
2022-10-12T03:08:26.992Z,5.30
2022-10-12T03:10:54.237Z,5.30
2022-10-12T03:13:21.500Z,5.30
2022-10-12T03:15:48.752Z,5.30
2022-10-12T03:18:15.853Z,5.30
2022-10-12T03:20:42.934Z,5.30
2022-10-12T03:23:10.052Z,5.30
2022-10-12T03:25:37.325Z,5.20
2022-10-12T03:28:04.600Z,5.20
2022-10-12T03:30:31.816Z,5.10
2022-10-12T03:32:59.417Z,5.10
2022-10-12T03:35:26.915Z,5.00
2022-10-12T03:37:54.063Z,5.10
2022-10-12T03:40:21.374Z,5.10
2022-10-12T03:42:48.569Z,5.00
2022-10-12T03:45:15.757Z,5.10
2022-10-12T03:47:42.961Z,5.10
2022-10-12T03:50:10.409Z,5.10
2022-10-12T03:52:37.624Z,5.10
2022-10-12T03:55:05.151Z,5.20
2022-10-12T03:57:32.478Z,5.20
2022-10-12T03:59:59.724Z,5.20
2022-10-12T04:02:26.802Z,5.10
2022-10-12T04:04:54.674Z,5.10
2022-10-12T04:07:22.306Z,5.20
2022-10-12T04:09:49.518Z,5.20
2022-10-12T04:12:16.771Z,5.30
2022-10-12T04:14:44.045Z,5.30
2022-10-12T04:17:11.842Z,5.30
2022-10-12T04:19:39.137Z,5.20
2022-10-12T04:22:06.521Z,5.30
2022-10-12T04:24:33.789Z,5.20
2022-10-12T04:27:00.999Z,5.30
2022-10-12T04:29:28.280Z,5.30
2022-10-12T04:31:55.468Z,5.30
2022-10-12T04:34:22.779Z,5.20
2022-10-12T04:36:50.334Z,5.30
2022-10-12T04:39:17.499Z,5.20
2022-10-12T04:41:44.535Z,5.20
2022-10-12T04:44:11.763Z,5.20
2022-10-12T04:46:38.994Z,5.20
2022-10-12T04:49:06.387Z,5.20
2022-10-12T04:51:33.514Z,5.20
2022-10-12T04:54:00.742Z,5.10
2022-10-12T04:56:27.908Z,5.10
2022-10-12T04:58:55.173Z,5.10
2022-10-12T05:01:22.579Z,5.00
2022-10-12T05:03:49.783Z,4.90
2022-10-12T05:06:16.926Z,4.90
2022-10-12T05:08:44.286Z,4.90
2022-10-12T05:11:11.510Z,4.70
2022-10-12T05:13:38.852Z,4.60
2022-10-12T05:16:06.205Z,4.70
2022-10-12T05:18:33.447Z,4.70
2022-10-12T05:21:00.678Z,4.60
2022-10-12T05:23:27.936Z,4.60
2022-10-12T05:25:56.548Z,4.60
2022-10-12T05:28:24.112Z,4.50
2022-10-12T05:30:54.320Z,4.60
2022-10-12T05:33:21.603Z,4.60
2022-10-12T05:35:53.375Z,4.70
2022-10-12T05:38:23.467Z,4.70
2022-10-12T05:40:50.582Z,4.70
2022-10-12T05:43:17.714Z,4.70
2022-10-12T05:45:44.985Z,4.80
2022-10-12T05:48:12.177Z,4.80
2022-10-12T05:50:39.480Z,4.80
2022-10-12T05:53:06.825Z,4.70
2022-10-12T05:55:34.146Z,4.70
2022-10-12T05:58:01.424Z,4.70
2022-10-12T06:00:28.809Z,4.90
2022-10-12T06:02:56.319Z,5.10
2022-10-12T06:05:23.422Z,5.30
2022-10-12T06:07:50.589Z,5.40
2022-10-12T06:10:17.753Z,5.50
2022-10-12T06:12:44.942Z,5.80
2022-10-12T06:15:12.022Z,5.80
2022-10-12T06:17:39.241Z,6.00
2022-10-12T06:20:06.995Z,6.20
2022-10-12T06:22:34.274Z,5.90
2022-10-12T06:25:01.523Z,5.80
2022-10-12T06:27:28.678Z,6.20
2022-10-12T06:29:55.971Z,6.00
2022-10-12T06:32:23.124Z,5.70
2022-10-12T06:34:50.298Z,5.50
2022-10-12T06:37:44.321Z,5.40
2022-10-12T06:40:05.944Z,5.30
2022-10-12T06:42:33.408Z,5.30
2022-10-12T06:45:00.554Z,5.30
2022-10-12T06:47:27.704Z,5.20
2022-10-12T06:49:54.904Z,5.20
2022-10-12T06:52:22.160Z,5.10
2022-10-12T06:54:49.312Z,5.00
2022-10-12T06:57:16.573Z,5.10
2022-10-12T06:59:43.727Z,5.20
2022-10-12T07:02:12.088Z,5.40
2022-10-12T07:04:39.349Z,5.40
2022-10-12T07:07:06.727Z,5.60
2022-10-12T07:09:33.904Z,5.60
2022-10-12T07:12:01.102Z,5.70
2022-10-12T07:14:28.554Z,5.80
2022-10-12T07:16:55.770Z,5.90
2022-10-12T07:19:23.011Z,5.90
2022-10-12T07:21:50.169Z,5.90
2022-10-12T07:24:17.507Z,5.90
2022-10-12T07:26:44.972Z,6.00
2022-10-12T07:29:12.185Z,6.00
2022-10-12T07:31:39.387Z,6.20
2022-10-12T07:34:07.008Z,6.20
2022-10-12T07:36:57.487Z,6.30
2022-10-12T07:39:22.840Z,6.50
2022-10-12T07:41:50.786Z,6.50
2022-10-12T07:44:18.495Z,6.60
2022-10-12T07:46:46.365Z,6.70
2022-10-12T07:49:14.626Z,6.80
2022-10-12T07:51:42.710Z,6.90
2022-10-12T07:54:10.269Z,6.90
2022-10-12T07:56:37.578Z,7.00
2022-10-12T07:59:04.976Z,7.20
2022-10-12T08:01:33.492Z,7.30
2022-10-12T08:04:02.123Z,7.30
2022-10-12T08:06:32.896Z,7.30
2022-10-12T08:09:01.624Z,7.40
2022-10-12T08:11:29.378Z,7.40
2022-10-12T08:13:56.712Z,7.50
2022-10-12T08:16:24.164Z,7.40
2022-10-12T08:18:51.761Z,7.50
2022-10-12T08:21:19.667Z,7.60
2022-10-12T08:23:47.453Z,7.60
2022-10-12T08:26:15.914Z,7.60
2022-10-12T08:28:43.342Z,7.70
2022-10-12T08:31:19.942Z,7.70
2022-10-12T08:33:47.158Z,7.90
2022-10-12T08:36:14.606Z,7.90
2022-10-12T08:38:43.884Z,8.00
2022-10-12T08:41:21.748Z,8.10
2022-10-12T08:44:20.400Z,8.30
2022-10-12T08:46:48.322Z,8.40
2022-10-12T08:49:16.874Z,8.50
2022-10-12T08:51:56.665Z,8.50
2022-10-12T08:54:28.247Z,8.60
2022-10-12T08:56:56.243Z,8.80
2022-10-12T08:59:23.961Z,9.00
2022-10-12T09:01:57.041Z,9.00
2022-10-12T09:04:45.368Z,9.10
2022-10-12T09:07:27.568Z,9.20
2022-10-12T09:10:13.704Z,9.40
2022-10-12T09:12:52.564Z,9.50
2022-10-12T09:15:32.021Z,9.50
2022-10-12T09:18:01.478Z,9.60
2022-10-12T09:20:53.093Z,9.70
2022-10-12T09:23:25.598Z,9.80
2022-10-12T09:26:01.953Z,9.80
2022-10-12T09:28:39.432Z,10.00
2022-10-12T09:31:25.011Z,10.00
2022-10-12T09:33:54.408Z,10.00
2022-10-12T09:36:24.707Z,10.00
2022-10-12T09:38:52.603Z,10.20
2022-10-12T09:41:27.730Z,10.20
2022-10-12T09:43:59.363Z,10.30
2022-10-12T09:46:59.426Z,10.60
2022-10-12T09:49:40.728Z,10.70
2022-10-12T09:52:08.858Z,10.70
2022-10-12T09:54:39.867Z,10.70
2022-10-12T09:57:07.803Z,10.90
2022-10-12T09:59:43.741Z,11.00
2022-10-12T10:02:11.409Z,11.30
2022-10-12T10:04:40.880Z,11.40
2022-10-12T10:07:33.592Z,11.60
2022-10-12T10:10:12.818Z,11.80
2022-10-12T10:12:59.206Z,11.80
2022-10-12T10:15:35.057Z,11.90
2022-10-12T10:18:08.484Z,12.00
2022-10-12T10:20:35.560Z,12.30
2022-10-12T10:23:05.930Z,12.40
2022-10-12T10:25:34.583Z,12.50
2022-10-12T10:28:32.762Z,12.50
2022-10-12T10:31:03.105Z,12.60
2022-10-12T10:33:32.649Z,12.90
2022-10-12T10:36:26.593Z,13.00
2022-10-12T10:39:05.083Z,13.00
2022-10-12T10:41:41.607Z,13.10
2022-10-12T10:44:27.890Z,13.20
2022-10-12T10:46:57.868Z,13.30
2022-10-12T10:49:28.447Z,13.40
2022-10-12T10:51:58.151Z,13.50
2022-10-12T10:54:27.437Z,13.50
2022-10-12T10:57:18.534Z,13.50
2022-10-12T10:59:48.659Z,13.50
2022-10-12T11:02:30.829Z,13.50
2022-10-12T11:05:21.427Z,13.90
2022-10-12T11:07:50.799Z,13.90
2022-10-12T11:10:29.661Z,13.90
2022-10-12T11:13:12.723Z,13.90
2022-10-12T11:15:54.773Z,14.10
2022-10-12T11:18:44.403Z,14.30
2022-10-12T11:21:46.880Z,14.40
2022-10-12T11:24:36.424Z,14.60
2022-10-12T11:27:09.996Z,14.60
2022-10-12T11:29:38.577Z,14.50
2022-10-12T11:32:28.575Z,14.60
2022-10-12T11:35:02.647Z,14.70
2022-10-12T11:37:52.006Z,14.90
2022-10-12T11:43:24.749Z,15.20
2022-10-12T11:45:56.235Z,15.20
2022-10-12T11:48:32.049Z,15.30
2022-10-12T11:51:03.822Z,15.30
2022-10-12T11:53:51.922Z,15.20
2022-10-12T11:56:45.038Z,15.10
2022-10-12T11:59:43.343Z,15.10
2022-10-12T12:02:22.559Z,15.20
2022-10-12T12:04:50.785Z,15.30
2022-10-12T12:07:49.292Z,15.20
2022-10-12T12:10:30.734Z,15.20
2022-10-12T12:13:15.071Z,15.10
2022-10-12T12:15:43.797Z,15.20
2022-10-12T12:18:20.241Z,15.20
2022-10-12T12:20:47.433Z,15.10
2022-10-12T12:23:29.365Z,15.00
2022-10-12T12:26:17.113Z,15.20
2022-10-12T12:28:47.143Z,15.50
2022-10-12T12:31:23.472Z,15.80
2022-10-12T12:34:03.983Z,16.40
2022-10-12T12:36:37.178Z,16.70
2022-10-12T12:39:08.391Z,16.40
2022-10-12T12:42:08.703Z,16.20
2022-10-12T12:44:41.860Z,16.10
2022-10-12T12:47:39.951Z,16.10
2022-10-12T12:50:02.293Z,16.20
2022-10-12T12:52:34.990Z,16.30
2022-10-12T12:55:40.628Z,16.30
2022-10-12T12:58:45.629Z,16.10
2022-10-12T13:01:32.172Z,15.70
2022-10-12T13:04:27.578Z,15.40
2022-10-12T13:07:03.770Z,15.60
2022-10-12T13:09:46.312Z,15.70
2022-10-12T13:12:55.055Z,15.70
2022-10-12T13:15:28.981Z,15.80
2022-10-12T13:18:45.988Z,15.80
2022-10-12T13:21:17.464Z,15.70
2022-10-12T13:23:49.244Z,15.80
2022-10-12T13:26:25.767Z,15.80
2022-10-12T13:28:54.254Z,16.00
2022-10-12T13:31:49.141Z,16.10
2022-10-12T13:34:16.076Z,16.20
2022-10-12T13:37:10.132Z,16.30
2022-10-12T13:39:44.980Z,16.40
2022-10-12T13:42:29.676Z,16.20
2022-10-12T13:44:58.823Z,15.70
2022-10-12T13:47:32.490Z,15.40
2022-10-12T13:50:00.670Z,15.50
2022-10-12T13:52:33.284Z,15.50
2022-10-12T13:55:01.487Z,15.70
2022-10-12T13:57:32.122Z,16.10
2022-10-12T14:00:08.260Z,16.20
2022-10-12T14:02:35.323Z,16.30
2022-10-12T14:05:05.587Z,16.20
2022-10-12T14:07:40.846Z,16.60
2022-10-12T14:10:21.977Z,17.30
2022-10-12T14:12:54.408Z,17.50
2022-10-12T14:15:25.014Z,16.80
2022-10-12T14:17:52.762Z,16.90
2022-10-12T14:20:32.766Z,17.00
2022-10-12T14:23:02.281Z,17.00
2022-10-12T14:25:31.454Z,16.90
2022-10-12T14:28:05.057Z,17.10
2022-10-12T14:30:50.334Z,16.80
2022-10-12T14:33:17.393Z,16.20
2022-10-12T14:35:48.246Z,15.90
2022-10-12T14:38:33.825Z,15.70
2022-10-12T14:41:26.954Z,15.80
2022-10-12T14:44:13.671Z,16.10
2022-10-12T14:47:11.050Z,16.10
2022-10-12T14:49:38.198Z,16.60
2022-10-12T14:52:07.492Z,16.90
2022-10-12T14:54:34.741Z,16.70
2022-10-12T14:57:14.702Z,16.60
2022-10-12T14:59:42.421Z,16.60
2022-10-12T15:02:17.280Z,16.60
2022-10-12T15:04:44.981Z,16.20
2022-10-12T15:07:18.960Z,16.00
2022-10-12T15:09:46.542Z,15.80
2022-10-12T15:12:15.973Z,15.70
2022-10-12T15:14:43.876Z,15.60
2022-10-12T15:17:16.281Z,15.40
2022-10-12T15:19:44.498Z,15.20
2022-10-12T15:22:19.379Z,15.00
2022-10-12T15:24:47.296Z,14.70
2022-10-12T15:27:14.926Z,14.50
2022-10-12T15:29:42.749Z,14.70
2022-10-12T15:32:15.268Z,14.70
2022-10-12T15:34:42.854Z,14.70
2022-10-12T15:37:09.966Z,14.50
2022-10-12T15:39:37.439Z,14.50
2022-10-12T15:42:04.808Z,14.40
2022-10-12T15:44:31.980Z,14.30
2022-10-12T15:47:01.099Z,14.20
2022-10-12T15:49:28.289Z,14.00
2022-10-12T15:51:56.294Z,14.00
2022-10-12T15:54:23.447Z,13.90
2022-10-12T15:56:50.650Z,13.70
2022-10-12T15:59:17.881Z,13.60
2022-10-12T16:01:45.087Z,13.50
2022-10-12T16:04:15.459Z,13.30
2022-10-12T16:06:42.676Z,13.20
2022-10-12T16:09:10.300Z,13.10
2022-10-12T16:11:37.635Z,12.90
2022-10-12T16:14:04.777Z,12.80
2022-10-12T16:16:32.540Z,12.70
2022-10-12T16:18:59.713Z,12.60
2022-10-12T16:21:27.556Z,12.60
2022-10-12T16:23:54.782Z,12.40
2022-10-12T16:26:22.082Z,12.40
2022-10-12T16:28:49.463Z,12.30
2022-10-12T16:31:18.099Z,12.30
2022-10-12T16:33:45.807Z,12.20
2022-10-12T16:36:15.534Z,12.20
2022-10-12T16:38:44.053Z,12.20
2022-10-12T16:41:13.923Z,12.10
2022-10-12T16:43:41.385Z,12.10
2022-10-12T16:46:08.764Z,12.20
2022-10-12T16:48:36.736Z,12.20
2022-10-12T16:51:11.563Z,12.20
2022-10-12T16:53:39.202Z,12.10
2022-10-12T16:56:06.687Z,12.00
2022-10-12T16:58:33.974Z,11.90
2022-10-12T17:01:12.246Z,11.80
2022-10-12T17:03:39.566Z,11.80
2022-10-12T17:06:07.261Z,11.90
2022-10-12T17:08:35.813Z,11.90
2022-10-12T17:11:08.387Z,12.00
2022-10-12T17:13:40.027Z,12.10
2022-10-12T17:16:27.093Z,12.00
2022-10-12T17:18:59.144Z,12.00
2022-10-12T17:21:27.317Z,11.90
2022-10-12T17:23:58.141Z,11.90
2022-10-12T17:26:25.908Z,11.80
2022-10-12T17:28:53.172Z,11.80
2022-10-12T17:31:20.516Z,11.80
2022-10-12T17:33:47.718Z,11.70
2022-10-12T17:36:14.914Z,11.70
2022-10-12T17:38:42.109Z,11.60
2022-10-12T17:41:09.446Z,11.60
2022-10-12T17:43:36.594Z,11.40
2022-10-12T17:46:06.223Z,11.30
2022-10-12T17:48:35.072Z,11.20
2022-10-12T17:51:04.046Z,11.10
2022-10-12T17:53:32.691Z,11.10
2022-10-12T17:56:04.581Z,11.20
2022-10-12T17:58:32.059Z,11.30
2022-10-12T18:01:07.598Z,11.30
2022-10-12T18:03:34.814Z,11.40
2022-10-12T18:06:06.740Z,11.50
2022-10-12T18:08:34.342Z,11.50
2022-10-12T18:11:02.836Z,11.50
2022-10-12T18:13:30.894Z,11.50
2022-10-12T18:15:58.228Z,11.50
2022-10-12T18:18:25.781Z,11.40
2022-10-12T18:20:53.335Z,11.40
2022-10-12T18:23:20.683Z,11.30
2022-10-12T18:25:47.794Z,11.20
2022-10-12T18:28:15.680Z,11.10
2022-10-12T18:30:50.737Z,11.10
2022-10-12T18:33:18.330Z,11.10
2022-10-12T18:35:45.505Z,11.10
2022-10-12T18:38:12.642Z,11.20
2022-10-12T18:40:42.354Z,11.20
2022-10-12T18:43:10.156Z,11.30
2022-10-12T18:45:46.694Z,11.30
2022-10-12T18:48:14.524Z,11.30
2022-10-12T18:50:41.916Z,11.20
2022-10-12T18:53:09.067Z,11.20
2022-10-12T18:55:41.190Z,11.20
2022-10-12T18:58:08.607Z,11.10
2022-10-12T19:00:37.048Z,11.10
2022-10-12T19:03:04.923Z,11.00
2022-10-12T19:05:32.130Z,10.90
2022-10-12T19:07:59.320Z,10.90
2022-10-12T19:10:27.221Z,10.90
2022-10-12T19:12:54.832Z,10.90
2022-10-12T19:15:22.031Z,10.80
2022-10-12T19:17:51.514Z,10.80
2022-10-12T19:20:18.924Z,10.80
2022-10-12T19:22:47.482Z,10.70
2022-10-12T19:25:15.330Z,10.60
2022-10-12T19:27:42.381Z,10.60
2022-10-12T19:30:11.086Z,10.60
2022-10-12T19:32:38.325Z,10.50
2022-10-12T19:35:05.863Z,10.50
2022-10-12T19:37:33.568Z,10.50
2022-10-12T19:40:05.233Z,10.40
2022-10-12T19:42:34.622Z,10.40
2022-10-12T19:45:03.525Z,10.30
2022-10-12T19:47:31.597Z,10.30
2022-10-12T19:49:58.760Z,10.30
2022-10-12T19:52:25.919Z,10.20
2022-10-12T19:54:52.961Z,10.20
2022-10-12T19:57:20.190Z,10.00
2022-10-12T19:59:47.460Z,10.00
2022-10-12T20:02:15.816Z,10.00
2022-10-12T20:04:43.830Z,10.00
2022-10-12T20:07:12.732Z,9.90
2022-10-12T20:09:40.151Z,9.70
2022-10-12T20:12:07.335Z,9.70
2022-10-12T20:14:34.524Z,9.60
2022-10-12T20:17:01.672Z,9.50
2022-10-12T20:19:29.386Z,9.40
2022-10-12T20:21:56.447Z,9.30
2022-10-12T20:24:24.110Z,9.30
2022-10-12T20:26:51.387Z,9.20
2022-10-12T20:29:18.628Z,9.20
2022-10-12T20:31:45.800Z,9.10
2022-10-12T20:34:13.132Z,8.90
2022-10-12T20:36:40.238Z,8.90
2022-10-12T20:39:07.401Z,8.90
2022-10-12T20:41:34.632Z,8.90
2022-10-12T20:44:01.985Z,8.90
2022-10-12T20:46:30.810Z,9.00
2022-10-12T20:49:00.282Z,9.20
2022-10-12T20:51:30.427Z,9.30
2022-10-12T20:54:01.643Z,9.40
2022-10-12T20:56:30.916Z,9.50
2022-10-12T20:58:59.035Z,9.50
2022-10-12T21:01:26.605Z,9.50
2022-10-12T21:03:54.680Z,9.50
2022-10-12T21:06:23.630Z,9.50
2022-10-12T21:08:52.804Z,9.50
2022-10-12T21:11:21.971Z,9.40
2022-10-12T21:13:49.679Z,9.40
2022-10-12T21:16:17.631Z,9.40
2022-10-12T21:18:44.851Z,9.40
2022-10-12T21:21:18.240Z,9.40
2022-10-12T21:23:53.752Z,9.30
2022-10-12T21:26:22.033Z,9.40
2022-10-12T21:28:49.270Z,9.40
2022-10-12T21:31:16.647Z,9.40
2022-10-12T21:33:44.330Z,9.40
2022-10-12T21:36:17.428Z,9.40
2022-10-12T21:38:45.014Z,9.40
2022-10-12T21:41:13.584Z,9.30
2022-10-12T21:43:42.595Z,9.30
2022-10-12T21:46:15.080Z,9.30
2022-10-12T21:48:43.538Z,9.20
2022-10-12T21:51:11.281Z,9.20
2022-10-12T21:53:41.285Z,9.10
2022-10-12T21:56:17.831Z,8.90
2022-10-12T21:58:47.083Z,8.80
2022-10-12T22:01:16.765Z,8.70
2022-10-12T22:03:47.866Z,8.70
2022-10-12T22:06:20.320Z,8.80
2022-10-12T22:08:53.840Z,8.90
2022-10-12T22:11:24.931Z,9.00
2022-10-12T22:13:52.759Z,9.00
2022-10-12T22:16:20.556Z,9.10
2022-10-12T22:18:47.733Z,9.10
2022-10-12T22:21:17.194Z,9.10
2022-10-12T22:23:45.098Z,9.10
2022-10-12T22:26:16.346Z,9.10
2022-10-12T22:28:43.879Z,9.00
2022-10-12T22:31:12.803Z,9.00
2022-10-12T22:33:40.801Z,8.80
2022-10-12T22:36:08.959Z,8.80
2022-10-12T22:38:36.695Z,8.70
2022-10-12T22:41:06.420Z,8.70
2022-10-12T22:43:34.634Z,8.70
2022-10-12T22:46:02.465Z,8.70
2022-10-12T22:48:29.746Z,8.60
2022-10-12T22:50:57.043Z,8.40
2022-10-12T22:53:25.610Z,8.30
2022-10-12T22:56:04.672Z,8.30
2022-10-12T22:58:32.077Z,8.20
2022-10-12T23:01:07.031Z,8.10
2022-10-12T23:03:35.498Z,8.00
2022-10-12T23:06:03.206Z,8.00
2022-10-12T23:08:31.547Z,8.00
2022-10-12T23:11:06.378Z,8.00
2022-10-12T23:13:34.704Z,8.00
2022-10-12T23:16:13.256Z,8.00
2022-10-12T23:18:40.816Z,8.00
2022-10-12T23:21:10.634Z,8.00
2022-10-12T23:23:39.652Z,8.00
2022-10-12T23:26:10.461Z,7.90
2022-10-12T23:28:37.956Z,7.90
2022-10-12T23:31:06.917Z,8.00
2022-10-12T23:33:34.935Z,8.00
2022-10-12T23:36:05.554Z,8.00
2022-10-12T23:38:34.700Z,8.00
2022-10-12T23:41:02.225Z,7.90
2022-10-12T23:43:29.626Z,7.90
2022-10-12T23:45:57.203Z,7.90
2022-10-12T23:48:25.774Z,7.90
2022-10-12T23:50:53.137Z,7.80
2022-10-12T23:53:22.105Z,7.80
2022-10-12T23:55:50.172Z,7.70
2022-10-12T23:58:17.707Z,7.70
